Terminal Aerodrome Forecast
Issued by NWS Louisville, KY

Home | Current Version | Previous Version | Text Only | Print | Product List | Glossary On
Versions: 1 2 3 4 5 6 7 8 9 10 11 12 13 14 15 16 17
969
FTUS43 KLMK 172333
TAFLEX
TAF
KLEX 172333Z 1800/1824 15007KT P6SM BKN150
     FM180400 17012KT P6SM OVC070 WS020/20045KT
     FM180900 18017KT P6SM -SHRA BKN028 WS020/21055KT
     FM181300 20021G28KT 5SM -SHRA OVC015
     FM181900 23023G32KT 4SM SHRA OVC009 PROB30 1821/1824 2SM TSRA
      OVC004CB=

USA.gov is the U.S. government's official web portal to all federal, state and local government web resources and services.